ENKB/KSU METAR and TAF weather

Enter ICAO airport designator
Station Type Date Time Source
ENKB METAR 2020/01/22 17:50 UTC NOAA

ENKB 221750Z 21009KT 170V250 9999 SCT038 BKN086 04/M03 Q1026 RMK WIND 745FT 22015KT


Station Type Date Time Source
ENKB Decoded METAR 2020/01/22 17:50 UTC NOAA

Kristiansund / Kvernberget, Norway (ENKB) 63-07N 007-50E 62M
Jan 22, 2020 - 12:50 PM EST / 2020.01.22 1750 UTC
Wind: from the SSW (210 degrees) at 10 MPH (9 KT) (direction variable):0
Visibility: greater than 7 mile(s):0
Sky conditions: mostly cloudy
Temperature: 39 F (4 C)
Dew Point: 26 F (-3 C)
Relative Humidity: 60%
Pressure (altimeter): 30.30 in. Hg (1026 hPa)
ob: ENKB 221750Z 21009KT 170V250 9999 SCT038 BKN086 04/M03 Q1026 RMK WIND 745FT 22015KT
cycle: 18

Station Type Date Time Source
ENKB TAF 2010/02/05 07:50 UTC NOAA

METAR ENKB 050750Z 15011KT 110V200 9999 SCT055 BKN070 03/M05 Q1007

Example: see airport list